sensor_id;sensor_type;location;lat;lon;timestamp;temperature;humidity
34492;DHT22;20737;49.908;8.126;2023-03-01T00:01:20;-0.50;99.90
34492;DHT22;20737;49.908;8.126;2023-03-01T00:03:47;-0.50;99.90
34492;DHT22;20737;49.908;8.126;2023-03-01T00:06:14;-0.50;99.90
34492;DHT22;20737;49.908;8.126;2023-03-01T00:08:41;-0.50;99.90
34492;DHT22;20737;49.908;8.126;2023-03-01T00:11:11;-0.50;99.90
34492;DHT22;20737;49.908;8.126;2023-03-01T00:13:39;-0.50;99.90
34492;DHT22;20737;49.908;8.126;2023-03-01T00:16:08;-0.50;99.90
34492;DHT22;20737;49.908;8.126;2023-03-01T00:18:36;-0.40;99.90
34492;DHT22;20737;49.908;8.126;2023-03-01T00:21:03;-0.30;99.90
34492;DHT22;20737;49.908;8.126;2023-03-01T00:23:33;-0.30;99.90
34492;DHT22;20737;49.908;8.126;2023-03-01T00:26:00;-0.30;99.90
34492;DHT22;20737;49.908;8.126;2023-03-01T00:28:27;-0.40;99.90
34492;DHT22;20737;49.908;8.126;2023-03-01T00:30:54;-0.30;99.90
34492;DHT22;20737;49.908;8.126;2023-03-01T00:33:21;-0.30;99.90
34492;DHT22;20737;49.908;8.126;2023-03-01T00:35:49;-0.30;99.90
34492;DHT22;20737;49.908;8.126;2023-03-01T00:38:15;-0.30;99.90
34492;DHT22;20737;49.908;8.126;2023-03-01T00:40:42;-0.30;99.90
34492;DHT22;20737;49.908;8.126;2023-03-01T00:43:11;-0.30;99.90
34492;DHT22;20737;49.908;8.126;2023-03-01T00:45:37;-0.40;99.90
34492;DHT22;20737;49.908;8.126;2023-03-01T00:48:05;-0.40;99.90
34492;DHT22;20737;49.908;8.126;2023-03-01T00:50:32;-0.30;99.90
34492;DHT22;20737;49.908;8.126;2023-03-01T00:53:00;-0.30;99.90
34492;DHT22;20737;49.908;8.126;2023-03-01T00:55:26;-0.30;99.90
34492;DHT22;20737;49.908;8.126;2023-03-01T00:57:53;-0.30;99.90
34492;DHT22;20737;49.908;8.126;2023-03-01T01:00:20;-0.20;99.90
34492;DHT22;20737;49.908;8.126;2023-03-01T01:02:47;-0.20;99.90
34492;DHT22;20737;49.908;8.126;2023-03-01T01:05:17;-0.20;99.90
34492;DHT22;20737;49.908;8.126;2023-03-01T01:07:46;-0.10;99.90
34492;DHT22;20737;49.908;8.126;2023-03-01T01:10:14;-0.20;99.90
34492;DHT22;20737;49.908;8.126;2023-03-01T01:12:44;-0.20;99.90
34492;DHT22;20737;49.908;8.126;2023-03-01T01:15:12;-0.30;99.90
34492;DHT22;20737;49.908;8.126;2023-03-01T01:17:41;-0.40;99.90
34492;DHT22;20737;49.908;8.126;2023-03-01T01:20:08;-0.40;99.90
34492;DHT22;20737;49.908;8.126;2023-03-01T01:22:35;-0.50;99.90
34492;DHT22;20737;49.908;8.126;2023-03-01T01:25:03;-0.50;99.90
34492;DHT22;20737;49.908;8.126;2023-03-01T01:27:32;-0.50;99.90
34492;DHT22;20737;49.908;8.126;2023-03-01T01:29:59;-0.50;99.90
34492;DHT22;20737;49.908;8.126;2023-03-01T01:32:25;-0.50;99.90
34492;DHT22;20737;49.908;8.126;2023-03-01T01:34:52;-0.50;99.90
34492;DHT22;20737;49.908;8.126;2023-03-01T01:37:19;-0.60;99.90
34492;DHT22;20737;49.908;8.126;2023-03-01T01:39:46;-0.60;99.90
34492;DHT22;20737;49.908;8.126;2023-03-01T01:42:16;-0.60;99.90
34492;DHT22;20737;49.908;8.126;2023-03-01T01:44:46;-0.60;99.90
34492;DHT22;20737;49.908;8.126;2023-03-01T01:47:17;-0.60;99.90
34492;DHT22;20737;49.908;8.126;2023-03-01T01:49:51;-0.60;99.90
34492;DHT22;20737;49.908;8.126;2023-03-01T01:52:24;-0.60;99.90
34492;DHT22;20737;49.908;8.126;2023-03-01T01:54:55;-0.50;99.90
34492;DHT22;20737;49.908;8.126;2023-03-01T01:57:27;-0.50;99.90
34492;DHT22;20737;49.908;8.126;2023-03-01T02:00:07;-0.50;99.90
34492;DHT22;20737;49.908;8.126;2023-03-01T02:02:34;-0.60;99.90
34492;DHT22;20737;49.908;8.126;2023-03-01T02:05:09;-0.70;99.90
34492;DHT22;20737;49.908;8.126;2023-03-01T02:07:38;-0.80;99.90
34492;DHT22;20737;49.908;8.126;2023-03-01T02:10:06;-0.80;99.90
34492;DHT22;20737;49.908;8.126;2023-03-01T02:12:34;-0.80;99.90
34492;DHT22;20737;49.908;8.126;2023-03-01T02:15:04;-0.80;99.90
34492;DHT22;20737;49.908;8.126;2023-03-01T02:17:34;-0.80;99.90
34492;DHT22;20737;49.908;8.126;2023-03-01T02:20:11;-0.80;99.90
34492;DHT22;20737;49.908;8.126;2023-03-01T02:22:45;-0.80;99.90
34492;DHT22;20737;49.908;8.126;2023-03-01T02:25:23;-0.80;99.90
34492;DHT22;20737;49.908;8.126;2023-03-01T02:27:57;-0.80;99.90
34492;DHT22;20737;49.908;8.126;2023-03-01T02:30:27;-0.80;99.90
34492;DHT22;20737;49.908;8.126;2023-03-01T02:32:56;-0.80;99.90
34492;DHT22;20737;49.908;8.126;2023-03-01T02:35:29;-0.80;99.90
34492;DHT22;20737;49.908;8.126;2023-03-01T02:38:00;-0.80;99.90
34492;DHT22;20737;49.908;8.126;2023-03-01T02:40:28;-0.70;99.90
34492;DHT22;20737;49.908;8.126;2023-03-01T02:42:58;-0.70;99.90
34492;DHT22;20737;49.908;8.126;2023-03-01T02:45:27;-0.70;99.90
34492;DHT22;20737;49.908;8.126;2023-03-01T02:47:54;-0.70;99.90
34492;DHT22;20737;49.908;8.126;2023-03-01T02:50:42;-0.60;99.90
34492;DHT22;20737;49.908;8.126;2023-03-01T02:53:16;-0.60;99.90
34492;DHT22;20737;49.908;8.126;2023-03-01T02:55:50;-0.60;99.90
34492;DHT22;20737;49.908;8.126;2023-03-01T02:58:16;-0.60;99.90
34492;DHT22;20737;49.908;8.126;2023-03-01T03:00:47;-0.60;99.90
34492;DHT22;20737;49.908;8.126;2023-03-01T03:03:16;-0.50;99.90
34492;DHT22;20737;49.908;8.126;2023-03-01T03:05:45;-0.50;99.90
34492;DHT22;20737;49.908;8.126;2023-03-01T03:08:11;-0.50;99.90
34492;DHT22;20737;49.908;8.126;2023-03-01T03:10:40;-0.50;99.90
34492;DHT22;20737;49.908;8.126;2023-03-01T03:13:13;-0.50;99.90
34492;DHT22;20737;49.908;8.126;2023-03-01T03:15:45;-0.50;99.90
34492;DHT22;20737;49.908;8.126;2023-03-01T03:18:24;-0.50;99.90
34492;DHT22;20737;49.908;8.126;2023-03-01T03:20:52;-0.50;99.90
34492;DHT22;20737;49.908;8.126;2023-03-01T03:23:23;-0.40;99.90
34492;DHT22;20737;49.908;8.126;2023-03-01T03:25:50;-0.40;99.90
34492;DHT22;20737;49.908;8.126;2023-03-01T03:28:17;-0.40;99.90
34492;DHT22;20737;49.908;8.126;2023-03-01T03:30:44;-0.40;99.90
34492;DHT22;20737;49.908;8.126;2023-03-01T03:33:12;-0.20;99.90
34492;DHT22;20737;49.908;8.126;2023-03-01T03:35:43;-0.20;99.90
34492;DHT22;20737;49.908;8.126;2023-03-01T03:38:12;-0.20;99.90
34492;DHT22;20737;49.908;8.126;2023-03-01T03:40:43;-0.20;99.90
34492;DHT22;20737;49.908;8.126;2023-03-01T03:43:13;-0.10;99.90
34492;DHT22;20737;49.908;8.126;2023-03-01T03:45:40;-0.10;99.90
34492;DHT22;20737;49.908;8.126;2023-03-01T03:48:09;-0.10;99.90
34492;DHT22;20737;49.908;8.126;2023-03-01T03:50:36;-0.10;99.90
34492;DHT22;20737;49.908;8.126;2023-03-01T03:53:07;0.00;99.90
34492;DHT22;20737;49.908;8.126;2023-03-01T03:55:34;0.00;99.90
34492;DHT22;20737;49.908;8.126;2023-03-01T03:58:05;-0.10;99.90
34492;DHT22;20737;49.908;8.126;2023-03-01T04:00:33;-0.10;99.90
34492;DHT22;20737;49.908;8.126;2023-03-01T04:03:00;-0.10;99.90
34492;DHT22;20737;49.908;8.126;2023-03-01T04:05:28;-0.10;99.90
34492;DHT22;20737;49.908;8.126;2023-03-01T04:07:55;-0.10;99.90
34492;DHT22;20737;49.908;8.126;2023-03-01T04:10:35;0.00;99.90
34492;DHT22;20737;49.908;8.126;2023-03-01T04:13:04;-0.10;99.90
34492;DHT22;20737;49.908;8.126;2023-03-01T04:15:32;-0.10;99.90
34492;DHT22;20737;49.908;8.126;2023-03-01T04:18:00;-0.10;99.90
34492;DHT22;20737;49.908;8.126;2023-03-01T04:20:29;-0.10;99.90
34492;DHT22;20737;49.908;8.126;2023-03-01T04:23:01;-0.10;99.90
34492;DHT22;20737;49.908;8.126;2023-03-01T04:25:37;-0.10;99.90
34492;DHT22;20737;49.908;8.126;2023-03-01T04:28:04;-0.10;99.90
34492;DHT22;20737;49.908;8.126;2023-03-01T04:30:31;0.00;99.90
34492;DHT22;20737;49.908;8.126;2023-03-01T04:33:01;0.10;99.90
34492;DHT22;20737;49.908;8.126;2023-03-01T04:35:31;0.00;99.90
34492;DHT22;20737;49.908;8.126;2023-03-01T04:37:58;0.00;99.90
34492;DHT22;20737;49.908;8.126;2023-03-01T04:40:29;0.00;99.90
34492;DHT22;20737;49.908;8.126;2023-03-01T04:42:57;-0.10;99.90
34492;DHT22;20737;49.908;8.126;2023-03-01T04:45:24;-0.10;99.90
34492;DHT22;20737;49.908;8.126;2023-03-01T04:47:50;-0.10;99.90
34492;DHT22;20737;49.908;8.126;2023-03-01T04:50:21;-0.10;99.90
34492;DHT22;20737;49.908;8.126;2023-03-01T04:52:53;-0.20;99.90
34492;DHT22;20737;49.908;8.126;2023-03-01T04:55:24;-0.20;99.90
34492;DHT22;20737;49.908;8.126;2023-03-01T04:57:51;-0.20;99.90
34492;DHT22;20737;49.908;8.126;2023-03-01T05:00:21;-0.20;99.90
34492;DHT22;20737;49.908;8.126;2023-03-01T05:02:49;-0.30;99.90
34492;DHT22;20737;49.908;8.126;2023-03-01T05:05:32;-0.40;99.90
34492;DHT22;20737;49.908;8.126;2023-03-01T05:08:01;-0.40;99.90
34492;DHT22;20737;49.908;8.126;2023-03-01T05:10:30;-0.50;99.90
34492;DHT22;20737;49.908;8.126;2023-03-01T05:12:58;-0.50;99.90
34492;DHT22;20737;49.908;8.126;2023-03-01T05:15:27;-0.50;99.90
34492;DHT22;20737;49.908;8.126;2023-03-01T05:17:56;-0.50;99.90
34492;DHT22;20737;49.908;8.126;2023-03-01T05:20:27;-0.50;99.90
34492;DHT22;20737;49.908;8.126;2023-03-01T05:22:58;-0.50;99.90
34492;DHT22;20737;49.908;8.126;2023-03-01T05:25:25;-0.50;99.90
34492;DHT22;20737;49.908;8.126;2023-03-01T05:27:52;-0.60;99.90
34492;DHT22;20737;49.908;8.126;2023-03-01T05:30:19;-0.60;99.90
34492;DHT22;20737;49.908;8.126;2023-03-01T05:32:49;-0.60;99.90
34492;DHT22;20737;49.908;8.126;2023-03-01T05:35:21;-0.60;99.90
34492;DHT22;20737;49.908;8.126;2023-03-01T05:37:53;-0.60;99.90
34492;DHT22;20737;49.908;8.126;2023-03-01T05:40:22;-0.60;99.90
34492;DHT22;20737;49.908;8.126;2023-03-01T05:42:52;-0.70;99.90
34492;DHT22;20737;49.908;8.126;2023-03-01T05:45:23;-0.70;99.90
34492;DHT22;20737;49.908;8.126;2023-03-01T05:47:52;-0.70;99.90
34492;DHT22;20737;49.908;8.126;2023-03-01T05:50:22;-0.70;99.90
34492;DHT22;20737;49.908;8.126;2023-03-01T05:52:52;-0.70;99.90
34492;DHT22;20737;49.908;8.126;2023-03-01T05:55:21;-0.80;99.90
34492;DHT22;20737;49.908;8.126;2023-03-01T05:57:48;-0.80;99.90
34492;DHT22;20737;49.908;8.126;2023-03-01T06:00:17;-0.80;99.90
34492;DHT22;20737;49.908;8.126;2023-03-01T06:02:45;-0.80;99.90
34492;DHT22;20737;49.908;8.126;2023-03-01T06:05:13;-0.80;99.90
34492;DHT22;20737;49.908;8.126;2023-03-01T06:07:41;-0.80;99.90
34492;DHT22;20737;49.908;8.126;2023-03-01T06:10:09;-0.80;99.90
34492;DHT22;20737;49.908;8.126;2023-03-01T06:12:38;-0.80;99.90
34492;DHT22;20737;49.908;8.126;2023-03-01T06:15:06;-0.80;99.90
34492;DHT22;20737;49.908;8.126;2023-03-01T06:17:36;-0.70;99.90
34492;DHT22;20737;49.908;8.126;2023-03-01T06:20:09;-0.70;99.90
34492;DHT22;20737;49.908;8.126;2023-03-01T06:22:38;-0.60;99.90
34492;DHT22;20737;49.908;8.126;2023-03-01T06:25:06;-0.60;99.90
34492;DHT22;20737;49.908;8.126;2023-03-01T06:27:33;-0.50;99.90
34492;DHT22;20737;49.908;8.126;2023-03-01T06:30:02;-0.40;99.90
34492;DHT22;20737;49.908;8.126;2023-03-01T06:32:28;-0.20;99.90
34492;DHT22;20737;49.908;8.126;2023-03-01T06:34:55;-0.20;99.90
34492;DHT22;20737;49.908;8.126;2023-03-01T06:37:29;0.00;99.90
34492;DHT22;20737;49.908;8.126;2023-03-01T06:39:59;0.10;99.90
34492;DHT22;20737;49.908;8.126;2023-03-01T06:42:30;0.20;99.90
34492;DHT22;20737;49.908;8.126;2023-03-01T06:44:56;0.20;99.90
34492;DHT22;20737;49.908;8.126;2023-03-01T06:47:23;0.30;99.90
34492;DHT22;20737;49.908;8.126;2023-03-01T06:49:50;0.50;99.90
34492;DHT22;20737;49.908;8.126;2023-03-01T06:52:17;0.60;99.90
34492;DHT22;20737;49.908;8.126;2023-03-01T06:54:46;0.70;99.90
34492;DHT22;20737;49.908;8.126;2023-03-01T06:57:14;0.90;99.90
34492;DHT22;20737;49.908;8.126;2023-03-01T06:59:41;1.10;99.90
34492;DHT22;20737;49.908;8.126;2023-03-01T07:02:10;1.20;99.90
34492;DHT22;20737;49.908;8.126;2023-03-01T07:04:36;1.50;99.90
34492;DHT22;20737;49.908;8.126;2023-03-01T07:07:03;1.70;99.90
34492;DHT22;20737;49.908;8.126;2023-03-01T07:09:30;1.80;99.90
34492;DHT22;20737;49.908;8.126;2023-03-01T07:11:57;2.00;99.90
34492;DHT22;20737;49.908;8.126;2023-03-01T07:14:25;2.10;99.90
34492;DHT22;20737;49.908;8.126;2023-03-01T07:16:52;2.20;99.90
34492;DHT22;20737;49.908;8.126;2023-03-01T07:19:19;2.40;99.90
34492;DHT22;20737;49.908;8.126;2023-03-01T07:21:45;2.60;99.90
34492;DHT22;20737;49.908;8.126;2023-03-01T07:24:12;2.60;99.90
34492;DHT22;20737;49.908;8.126;2023-03-01T07:26:39;2.80;99.90
34492;DHT22;20737;49.908;8.126;2023-03-01T07:29:09;3.10;99.90
34492;DHT22;20737;49.908;8.126;2023-03-01T07:31:38;3.30;99.90
34492;DHT22;20737;49.908;8.126;2023-03-01T07:34:05;3.60;99.90
34492;DHT22;20737;49.908;8.126;2023-03-01T07:36:34;3.80;99.90
34492;DHT22;20737;49.908;8.126;2023-03-01T07:39:00;4.30;99.90
34492;DHT22;20737;49.908;8.126;2023-03-01T07:41:33;4.90;99.90
34492;DHT22;20737;49.908;8.126;2023-03-01T07:44:00;5.40;99.90
34492;DHT22;20737;49.908;8.126;2023-03-01T07:46:27;5.70;99.90
34492;DHT22;20737;49.908;8.126;2023-03-01T07:48:55;6.00;99.90
34492;DHT22;20737;49.908;8.126;2023-03-01T07:51:23;6.40;99.90
34492;DHT22;20737;49.908;8.126;2023-03-01T07:53:50;6.60;99.50
34492;DHT22;20737;49.908;8.126;2023-03-01T07:56:16;6.70;98.40
34492;DHT22;20737;49.908;8.126;2023-03-01T07:58:45;6.90;97.50
34492;DHT22;20737;49.908;8.126;2023-03-01T08:01:13;7.30;96.70
34492;DHT22;20737;49.908;8.126;2023-03-01T08:03:41;7.20;95.40
34492;DHT22;20737;49.908;8.126;2023-03-01T08:06:11;7.30;95.20
34492;DHT22;20737;49.908;8.126;2023-03-01T08:08:38;7.50;94.20
34492;DHT22;20737;49.908;8.126;2023-03-01T08:11:06;7.70;93.10
34492;DHT22;20737;49.908;8.126;2023-03-01T08:13:34;7.90;92.40
34492;DHT22;20737;49.908;8.126;2023-03-01T08:16:02;7.90;92.10
34492;DHT22;20737;49.908;8.126;2023-03-01T08:18:29;8.50;91.60
34492;DHT22;20737;49.908;8.126;2023-03-01T08:20:56;8.70;90.40
34492;DHT22;20737;49.908;8.126;2023-03-01T08:23:28;9.10;88.90
34492;DHT22;20737;49.908;8.126;2023-03-01T08:26:02;9.70;85.10
34492;DHT22;20737;49.908;8.126;2023-03-01T08:28:29;10.00;82.10
34492;DHT22;20737;49.908;8.126;2023-03-01T08:30:56;10.20;78.90
34492;DHT22;20737;49.908;8.126;2023-03-01T08:33:24;10.70;76.30
34492;DHT22;20737;49.908;8.126;2023-03-01T08:35:51;11.10;74.00
34492;DHT22;20737;49.908;8.126;2023-03-01T08:38:18;11.90;69.80
34492;DHT22;20737;49.908;8.126;2023-03-01T08:40:46;12.10;65.00
34492;DHT22;20737;49.908;8.126;2023-03-01T08:43:17;12.50;64.10
34492;DHT22;20737;49.908;8.126;2023-03-01T08:45:44;13.60;61.10
34492;DHT22;20737;49.908;8.126;2023-03-01T08:48:11;14.70;56.70
34492;DHT22;20737;49.908;8.126;2023-03-01T08:50:38;14.80;55.10
34492;DHT22;20737;49.908;8.126;2023-03-01T08:53:04;14.60;53.70
34492;DHT22;20737;49.908;8.126;2023-03-01T08:55:31;15.20;53.80
34492;DHT22;20737;49.908;8.126;2023-03-01T08:57:59;15.70;50.70
34492;DHT22;20737;49.908;8.126;2023-03-01T09:00:26;15.50;50.60
34492;DHT22;20737;49.908;8.126;2023-03-01T09:02:53;15.20;49.70
34492;DHT22;20737;49.908;8.126;2023-03-01T09:05:20;15.00;49.70
34492;DHT22;20737;49.908;8.126;2023-03-01T09:07:46;15.50;49.10
34492;DHT22;20737;49.908;8.126;2023-03-01T09:10:13;16.00;48.30
34492;DHT22;20737;49.908;8.126;2023-03-01T09:12:40;16.30;47.50
34492;DHT22;20737;49.908;8.126;2023-03-01T09:15:09;16.50;46.90
34492;DHT22;20737;49.908;8.126;2023-03-01T09:17:36;16.30;46.10
34492;DHT22;20737;49.908;8.126;2023-03-01T09:20:03;16.40;45.90
34492;DHT22;20737;49.908;8.126;2023-03-01T09:22:33;16.50;45.80
34492;DHT22;20737;49.908;8.126;2023-03-01T09:25:00;17.30;44.30
34492;DHT22;20737;49.908;8.126;2023-03-01T09:27:27;17.60;43.80
34492;DHT22;20737;49.908;8.126;2023-03-01T09:29:55;18.00;42.20
34492;DHT22;20737;49.908;8.126;2023-03-01T09:32:23;18.40;41.30
34492;DHT22;20737;49.908;8.126;2023-03-01T09:34:50;18.60;40.70
34492;DHT22;20737;49.908;8.126;2023-03-01T09:37:30;17.80;41.60
34492;DHT22;20737;49.908;8.126;2023-03-01T09:39:57;17.90;42.10
34492;DHT22;20737;49.908;8.126;2023-03-01T09:42:25;19.20;39.80
34492;DHT22;20737;49.908;8.126;2023-03-01T09:44:54;19.70;39.10
34492;DHT22;20737;49.908;8.126;2023-03-01T09:47:27;20.40;38.20
34492;DHT22;20737;49.908;8.126;2023-03-01T09:50:00;20.30;37.70
34492;DHT22;20737;49.908;8.126;2023-03-01T09:52:33;20.60;36.50
34492;DHT22;20737;49.908;8.126;2023-03-01T09:55:00;19.80;37.40
34492;DHT22;20737;49.908;8.126;2023-03-01T09:57:33;19.90;37.00
34492;DHT22;20737;49.908;8.126;2023-03-01T10:00:22;19.90;36.80
34492;DHT22;20737;49.908;8.126;2023-03-01T10:02:58;19.90;37.00
34492;DHT22;20737;49.908;8.126;2023-03-01T10:05:34;20.00;36.00
34492;DHT22;20737;49.908;8.126;2023-03-01T10:08:14;20.50;36.10
34492;DHT22;20737;49.908;8.126;2023-03-01T10:10:47;20.30;35.30
34492;DHT22;20737;49.908;8.126;2023-03-01T10:13:18;20.90;35.10
34492;DHT22;20737;49.908;8.126;2023-03-01T10:15:49;21.40;34.40
34492;DHT22;20737;49.908;8.126;2023-03-01T10:18:24;21.40;34.20
34492;DHT22;20737;49.908;8.126;2023-03-01T10:20:53;21.30;34.20
34492;DHT22;20737;49.908;8.126;2023-03-01T10:23:23;21.70;33.70
34492;DHT22;20737;49.908;8.126;2023-03-01T10:26:06;21.50;33.70
34492;DHT22;20737;49.908;8.126;2023-03-01T10:28:44;21.30;33.70
34492;DHT22;20737;49.908;8.126;2023-03-01T10:31:17;21.60;33.50
34492;DHT22;20737;49.908;8.126;2023-03-01T10:33:51;22.10;33.30
34492;DHT22;20737;49.908;8.126;2023-03-01T10:36:20;21.90;33.60
34492;DHT22;20737;49.908;8.126;2023-03-01T10:38:49;22.30;32.70
34492;DHT22;20737;49.908;8.126;2023-03-01T10:41:17;22.20;32.50
34492;DHT22;20737;49.908;8.126;2023-03-01T10:43:46;22.40;32.30
34492;DHT22;20737;49.908;8.126;2023-03-01T10:46:24;22.10;32.20
34492;DHT22;20737;49.908;8.126;2023-03-01T10:49:14;20.30;34.30
34492;DHT22;20737;49.908;8.126;2023-03-01T10:51:43;21.20;34.20
34492;DHT22;20737;49.908;8.126;2023-03-01T10:54:20;21.20;33.30
34492;DHT22;20737;49.908;8.126;2023-03-01T10:56:49;21.00;33.70
34492;DHT22;20737;49.908;8.126;2023-03-01T10:59:29;21.10;34.20
34492;DHT22;20737;49.908;8.126;2023-03-01T11:02:15;20.90;34.10
34492;DHT22;20737;49.908;8.126;2023-03-01T11:05:03;20.90;34.00
34492;DHT22;20737;49.908;8.126;2023-03-01T11:07:47;20.40;34.90
34492;DHT22;20737;49.908;8.126;2023-03-01T11:10:17;19.40;35.50
34492;DHT22;20737;49.908;8.126;2023-03-01T11:12:44;19.60;36.40
34492;DHT22;20737;49.908;8.126;2023-03-01T11:15:24;19.40;35.90
34492;DHT22;20737;49.908;8.126;2023-03-01T11:17:51;20.30;36.00
34492;DHT22;20737;49.908;8.126;2023-03-01T11:20:25;21.20;34.30
34492;DHT22;20737;49.908;8.126;2023-03-01T11:22:54;20.10;34.80
34492;DHT22;20737;49.908;8.126;2023-03-01T11:25:26;20.40;35.20
34492;DHT22;20737;49.908;8.126;2023-03-01T11:27:54;21.20;34.00
34492;DHT22;20737;49.908;8.126;2023-03-01T11:30:25;20.60;33.60
34492;DHT22;20737;49.908;8.126;2023-03-01T11:33:04;21.20;34.10
34492;DHT22;20737;49.908;8.126;2023-03-01T11:35:35;22.20;32.60
34492;DHT22;20737;49.908;8.126;2023-03-01T11:38:12;21.90;33.20
34492;DHT22;20737;49.908;8.126;2023-03-01T11:40:46;21.50;33.10
34492;DHT22;20737;49.908;8.126;2023-03-01T11:43:20;22.20;32.70
34492;DHT22;20737;49.908;8.126;2023-03-01T11:45:58;22.40;32.40
34492;DHT22;20737;49.908;8.126;2023-03-01T11:48:46;23.00;31.20
34492;DHT22;20737;49.908;8.126;2023-03-01T11:51:21;22.70;31.20
34492;DHT22;20737;49.908;8.126;2023-03-01T11:54:02;22.40;31.00
34492;DHT22;20737;49.908;8.126;2023-03-01T11:56:34;23.00;31.00
34492;DHT22;20737;49.908;8.126;2023-03-01T11:59:23;22.00;32.00
34492;DHT22;20737;49.908;8.126;2023-03-01T12:05:10;20.90;33.60
34492;DHT22;20737;49.908;8.126;2023-03-01T12:07:49;19.40;35.80
34492;DHT22;20737;49.908;8.126;2023-03-01T12:10:23;19.80;35.30
34492;DHT22;20737;49.908;8.126;2023-03-01T12:13:03;19.00;36.50
34492;DHT22;20737;49.908;8.126;2023-03-01T12:15:56;18.90;36.90
34492;DHT22;20737;49.908;8.126;2023-03-01T12:18:45;17.90;38.60
34492;DHT22;20737;49.908;8.126;2023-03-01T12:21:30;17.70;39.20
34492;DHT22;20737;49.908;8.126;2023-03-01T12:27:18;16.50;41.40
34492;DHT22;20737;49.908;8.126;2023-03-01T12:29:49;16.00;42.20
34492;DHT22;20737;49.908;8.126;2023-03-01T12:32:28;16.30;41.20
34492;DHT22;20737;49.908;8.126;2023-03-01T12:35:14;17.00;40.70
34492;DHT22;20737;49.908;8.126;2023-03-01T12:37:58;17.80;39.80
34492;DHT22;20737;49.908;8.126;2023-03-01T12:40:38;17.60;39.70
34492;DHT22;20737;49.908;8.126;2023-03-01T12:43:17;17.60;40.00
34492;DHT22;20737;49.908;8.126;2023-03-01T12:45:58;18.20;38.90
34492;DHT22;20737;49.908;8.126;2023-03-01T12:48:38;18.20;38.10
34492;DHT22;20737;49.908;8.126;2023-03-01T12:51:10;17.90;38.70
34492;DHT22;20737;49.908;8.126;2023-03-01T12:53:45;19.30;37.10
34492;DHT22;20737;49.908;8.126;2023-03-01T12:56:18;19.70;35.60
34492;DHT22;20737;49.908;8.126;2023-03-01T12:58:51;19.30;35.70
34492;DHT22;20737;49.908;8.126;2023-03-01T13:01:28;19.00;36.20
34492;DHT22;20737;49.908;8.126;2023-03-01T13:04:13;18.50;36.50
34492;DHT22;20737;49.908;8.126;2023-03-01T13:06:44;18.90;36.20
34492;DHT22;20737;49.908;8.126;2023-03-01T13:09:20;18.00;36.60
34492;DHT22;20737;49.908;8.126;2023-03-01T13:11:51;17.60;37.60
34492;DHT22;20737;49.908;8.126;2023-03-01T13:14:36;17.70;38.10
34492;DHT22;20737;49.908;8.126;2023-03-01T13:17:03;17.40;38.60
34492;DHT22;20737;49.908;8.126;2023-03-01T13:19:30;17.50;38.30
34492;DHT22;20737;49.908;8.126;2023-03-01T13:21:58;18.50;36.90
34492;DHT22;20737;49.908;8.126;2023-03-01T13:24:27;19.00;35.90
34492;DHT22;20737;49.908;8.126;2023-03-01T13:27:22;19.00;35.90
34492;DHT22;20737;49.908;8.126;2023-03-01T13:29:56;18.30;36.00
34492;DHT22;20737;49.908;8.126;2023-03-01T13:32:25;17.70;37.60
34492;DHT22;20737;49.908;8.126;2023-03-01T13:35:00;17.80;37.70
34492;DHT22;20737;49.908;8.126;2023-03-01T13:37:29;17.30;37.70
34492;DHT22;20737;49.908;8.126;2023-03-01T13:40:03;16.60;39.50
34492;DHT22;20737;49.908;8.126;2023-03-01T13:42:35;16.90;39.10
34492;DHT22;20737;49.908;8.126;2023-03-01T13:45:05;17.00;38.40
34492;DHT22;20737;49.908;8.126;2023-03-01T13:47:42;17.20;38.90
34492;DHT22;20737;49.908;8.126;2023-03-01T13:50:18;17.40;38.20
34492;DHT22;20737;49.908;8.126;2023-03-01T13:52:48;16.30;39.60
34492;DHT22;20737;49.908;8.126;2023-03-01T13:55:18;16.00;40.60
34492;DHT22;20737;49.908;8.126;2023-03-01T13:57:49;15.90;40.50
34492;DHT22;20737;49.908;8.126;2023-03-01T14:00:31;16.20;40.80
34492;DHT22;20737;49.908;8.126;2023-03-01T14:03:10;16.60;40.00
34492;DHT22;20737;49.908;8.126;2023-03-01T14:05:39;17.30;39.40
34492;DHT22;20737;49.908;8.126;2023-03-01T14:08:19;17.40;37.60
34492;DHT22;20737;49.908;8.126;2023-03-01T14:13:52;16.30;39.60
34492;DHT22;20737;49.908;8.126;2023-03-01T14:16:32;16.40;39.50
34492;DHT22;20737;49.908;8.126;2023-03-01T14:19:13;16.50;39.70
34492;DHT22;20737;49.908;8.126;2023-03-01T14:21:41;16.60;40.00
34492;DHT22;20737;49.908;8.126;2023-03-01T14:24:16;17.00;39.30
34492;DHT22;20737;49.908;8.126;2023-03-01T14:26:43;17.40;38.10
34492;DHT22;20737;49.908;8.126;2023-03-01T14:29:25;17.70;38.70
34492;DHT22;20737;49.908;8.126;2023-03-01T14:31:52;17.50;37.90
34492;DHT22;20737;49.908;8.126;2023-03-01T14:34:20;16.90;38.20
34492;DHT22;20737;49.908;8.126;2023-03-01T14:36:48;17.10;39.40
34492;DHT22;20737;49.908;8.126;2023-03-01T14:39:19;17.50;39.00
34492;DHT22;20737;49.908;8.126;2023-03-01T14:41:46;17.70;37.50
34492;DHT22;20737;49.908;8.126;2023-03-01T14:44:16;17.20;38.50
34492;DHT22;20737;49.908;8.126;2023-03-01T14:46:51;17.40;38.60
34492;DHT22;20737;49.908;8.126;2023-03-01T14:49:21;17.50;38.30
34492;DHT22;20737;49.908;8.126;2023-03-01T14:51:52;17.20;39.00
34492;DHT22;20737;49.908;8.126;2023-03-01T14:54:23;17.20;38.70
34492;DHT22;20737;49.908;8.126;2023-03-01T14:56:51;17.10;39.00
34492;DHT22;20737;49.908;8.126;2023-03-01T14:59:24;17.20;38.60
34492;DHT22;20737;49.908;8.126;2023-03-01T15:01:55;17.50;38.40
34492;DHT22;20737;49.908;8.126;2023-03-01T15:04:23;17.50;38.20
34492;DHT22;20737;49.908;8.126;2023-03-01T15:06:52;17.50;37.90
34492;DHT22;20737;49.908;8.126;2023-03-01T15:09:19;17.10;38.70
34492;DHT22;20737;49.908;8.126;2023-03-01T15:11:50;17.00;39.10
34492;DHT22;20737;49.908;8.126;2023-03-01T15:14:28;16.80;39.40
34492;DHT22;20737;49.908;8.126;2023-03-01T15:16:57;17.00;39.20
34492;DHT22;20737;49.908;8.126;2023-03-01T15:19:27;15.80;40.60
34492;DHT22;20737;49.908;8.126;2023-03-01T15:21:54;14.90;41.80
34492;DHT22;20737;49.908;8.126;2023-03-01T15:24:24;13.90;43.20
34492;DHT22;20737;49.908;8.126;2023-03-01T15:26:55;12.90;45.70
34492;DHT22;20737;49.908;8.126;2023-03-01T15:29:24;12.00;47.60
34492;DHT22;20737;49.908;8.126;2023-03-01T15:31:59;11.30;49.10
34492;DHT22;20737;49.908;8.126;2023-03-01T15:34:27;10.80;50.20
34492;DHT22;20737;49.908;8.126;2023-03-01T15:36:56;10.30;51.20
34492;DHT22;20737;49.908;8.126;2023-03-01T15:39:34;10.00;52.20
34492;DHT22;20737;49.908;8.126;2023-03-01T15:42:03;9.80;53.00
34492;DHT22;20737;49.908;8.126;2023-03-01T15:44:34;9.50;53.50
34492;DHT22;20737;49.908;8.126;2023-03-01T15:47:07;9.40;54.20
34492;DHT22;20737;49.908;8.126;2023-03-01T15:49:38;9.30;54.90
34492;DHT22;20737;49.908;8.126;2023-03-01T15:52:12;9.20;55.10
34492;DHT22;20737;49.908;8.126;2023-03-01T15:54:40;9.10;55.40
34492;DHT22;20737;49.908;8.126;2023-03-01T15:57:12;9.10;55.50
34492;DHT22;20737;49.908;8.126;2023-03-01T15:59:40;9.00;56.30
34492;DHT22;20737;49.908;8.126;2023-03-01T16:02:12;8.90;56.00
34492;DHT22;20737;49.908;8.126;2023-03-01T16:04:39;8.90;56.10